sensor_id;sensor_type;location;lat;lon;timestamp;pressure;altitude;pressure_sealevel;temperature
18782;BMP180;9519;51.890;8.970;2022-09-02T00:02:53;99745.00;;;13.30
18782;BMP180;9519;51.890;8.970;2022-09-02T00:07:56;99748.00;;;13.20
18782;BMP180;9519;51.890;8.970;2022-09-02T00:12:58;99716.00;;;13.10
18782;BMP180;9519;51.890;8.970;2022-09-02T00:18:03;99736.00;;;13.10
18782;BMP180;9519;51.890;8.970;2022-09-02T00:23:06;99735.00;;;13.00
18782;BMP180;9519;51.890;8.970;2022-09-02T00:28:11;99737.00;;;13.00
18782;BMP180;9519;51.890;8.970;2022-09-02T00:33:16;99728.00;;;13.00
18782;BMP180;9519;51.890;8.970;2022-09-02T00:38:18;99726.00;;;13.00
18782;BMP180;9519;51.890;8.970;2022-09-02T00:43:39;99728.00;;;12.90
18782;BMP180;9519;51.890;8.970;2022-09-02T00:48:48;99726.00;;;12.80
18782;BMP180;9519;51.890;8.970;2022-09-02T00:53:53;99726.00;;;12.80
18782;BMP180;9519;51.890;8.970;2022-09-02T00:58:56;99706.00;;;12.70
18782;BMP180;9519;51.890;8.970;2022-09-02T01:04:01;99712.00;;;12.60
18782;BMP180;9519;51.890;8.970;2022-09-02T01:09:09;99717.00;;;12.50
18782;BMP180;9519;51.890;8.970;2022-09-02T01:14:13;99723.00;;;12.40
18782;BMP180;9519;51.890;8.970;2022-09-02T01:19:22;99724.00;;;12.30
18782;BMP180;9519;51.890;8.970;2022-09-02T01:24:30;99715.00;;;12.20
18782;BMP180;9519;51.890;8.970;2022-09-02T01:29:34;99693.00;;;12.10
18782;BMP180;9519;51.890;8.970;2022-09-02T01:34:36;99706.00;;;12.10
18782;BMP180;9519;51.890;8.970;2022-09-02T01:39:40;99700.00;;;12.00
18782;BMP180;9519;51.890;8.970;2022-09-02T01:44:42;99694.00;;;11.90
18782;BMP180;9519;51.890;8.970;2022-09-02T01:49:45;99685.00;;;11.80
18782;BMP180;9519;51.890;8.970;2022-09-02T01:54:50;99682.00;;;11.70
18782;BMP180;9519;51.890;8.970;2022-09-02T01:59:54;99669.00;;;11.70
18782;BMP180;9519;51.890;8.970;2022-09-02T02:04:56;99679.00;;;11.60
18782;BMP180;9519;51.890;8.970;2022-09-02T02:09:59;99674.00;;;11.50
18782;BMP180;9519;51.890;8.970;2022-09-02T02:15:03;99673.00;;;11.40
18782;BMP180;9519;51.890;8.970;2022-09-02T02:20:08;99682.00;;;11.30
18782;BMP180;9519;51.890;8.970;2022-09-02T02:25:14;99683.00;;;11.30
18782;BMP180;9519;51.890;8.970;2022-09-02T02:30:20;99670.00;;;11.20
18782;BMP180;9519;51.890;8.970;2022-09-02T02:35:22;99660.00;;;11.10
18782;BMP180;9519;51.890;8.970;2022-09-02T02:40:27;99667.00;;;11.10
18782;BMP180;9519;51.890;8.970;2022-09-02T02:45:29;99674.00;;;11.00
18782;BMP180;9519;51.890;8.970;2022-09-02T02:50:32;99659.00;;;11.00
18782;BMP180;9519;51.890;8.970;2022-09-02T02:55:37;99670.00;;;10.90
18782;BMP180;9519;51.890;8.970;2022-09-02T03:00:39;99658.00;;;10.80
18782;BMP180;9519;51.890;8.970;2022-09-02T03:05:46;99652.00;;;10.70
18782;BMP180;9519;51.890;8.970;2022-09-02T03:10:51;99653.00;;;10.70
18782;BMP180;9519;51.890;8.970;2022-09-02T03:15:54;99659.00;;;10.70
18782;BMP180;9519;51.890;8.970;2022-09-02T03:20:56;99647.00;;;10.60
18782;BMP180;9519;51.890;8.970;2022-09-02T03:26:00;99653.00;;;10.60
18782;BMP180;9519;51.890;8.970;2022-09-02T03:31:03;99647.00;;;10.50
18782;BMP180;9519;51.890;8.970;2022-09-02T03:36:06;99653.00;;;10.50
18782;BMP180;9519;51.890;8.970;2022-09-02T03:41:10;99635.00;;;10.50
18782;BMP180;9519;51.890;8.970;2022-09-02T03:46:12;99639.00;;;10.50
18782;BMP180;9519;51.890;8.970;2022-09-02T03:51:18;99650.00;;;10.40
18782;BMP180;9519;51.890;8.970;2022-09-02T03:56:24;99633.00;;;10.40
18782;BMP180;9519;51.890;8.970;2022-09-02T04:01:30;99642.00;;;10.30
18782;BMP180;9519;51.890;8.970;2022-09-02T04:06:32;99635.00;;;10.30
18782;BMP180;9519;51.890;8.970;2022-09-02T04:11:42;99636.00;;;10.30
18782;BMP180;9519;51.890;8.970;2022-09-02T04:23:00;99628.00;;;10.10
18782;BMP180;9519;51.890;8.970;2022-09-02T04:28:04;99637.00;;;10.10
18782;BMP180;9519;51.890;8.970;2022-09-02T04:33:06;99623.00;;;10.10
18782;BMP180;9519;51.890;8.970;2022-09-02T04:38:09;99625.00;;;10.00
18782;BMP180;9519;51.890;8.970;2022-09-02T04:43:14;99613.00;;;10.00
18782;BMP180;9519;51.890;8.970;2022-09-02T04:48:17;99624.00;;;10.00
18782;BMP180;9519;51.890;8.970;2022-09-02T04:53:19;99652.00;;;10.10
18782;BMP180;9519;51.890;8.970;2022-09-02T04:58:22;99621.00;;;10.20
18782;BMP180;9519;51.890;8.970;2022-09-02T05:03:29;99658.00;;;10.20
18782;BMP180;9519;51.890;8.970;2022-09-02T05:08:32;99653.00;;;10.30
18782;BMP180;9519;51.890;8.970;2022-09-02T05:13:40;99661.00;;;10.30
18782;BMP180;9519;51.890;8.970;2022-09-02T05:18:43;99657.00;;;10.40
18782;BMP180;9519;51.890;8.970;2022-09-02T05:23:46;99655.00;;;10.60
18782;BMP180;9519;51.890;8.970;2022-09-02T05:28:52;99656.00;;;10.70
18782;BMP180;9519;51.890;8.970;2022-09-02T05:33:55;99649.00;;;10.80
18782;BMP180;9519;51.890;8.970;2022-09-02T05:38:57;99639.00;;;10.80
18782;BMP180;9519;51.890;8.970;2022-09-02T05:44:03;99629.00;;;10.90
18782;BMP180;9519;51.890;8.970;2022-09-02T05:49:06;99643.00;;;10.90
18782;BMP180;9519;51.890;8.970;2022-09-02T05:54:13;99644.00;;;11.00
18782;BMP180;9519;51.890;8.970;2022-09-02T05:59:17;99612.00;;;11.10
18782;BMP180;9519;51.890;8.970;2022-09-02T06:04:20;99637.00;;;11.20
18782;BMP180;9519;51.890;8.970;2022-09-02T06:09:23;99630.00;;;11.30
18782;BMP180;9519;51.890;8.970;2022-09-02T06:14:29;99640.00;;;11.40
18782;BMP180;9519;51.890;8.970;2022-09-02T06:19:31;99637.00;;;11.50
18782;BMP180;9519;51.890;8.970;2022-09-02T06:24:33;99615.00;;;11.70
18782;BMP180;9519;51.890;8.970;2022-09-02T06:29:37;99630.00;;;11.80
18782;BMP180;9519;51.890;8.970;2022-09-02T06:34:39;99617.00;;;12.00
18782;BMP180;9519;51.890;8.970;2022-09-02T06:39:41;99632.00;;;12.10
18782;BMP180;9519;51.890;8.970;2022-09-02T06:44:47;99632.00;;;12.30
18782;BMP180;9519;51.890;8.970;2022-09-02T06:49:49;99629.00;;;12.50
18782;BMP180;9519;51.890;8.970;2022-09-02T06:54:54;99622.00;;;12.70
18782;BMP180;9519;51.890;8.970;2022-09-02T07:00:01;99635.00;;;13.00
18782;BMP180;9519;51.890;8.970;2022-09-02T07:05:05;99630.00;;;13.20
18782;BMP180;9519;51.890;8.970;2022-09-02T07:10:15;99631.00;;;13.40
18782;BMP180;9519;51.890;8.970;2022-09-02T07:15:23;99620.00;;;13.70
18782;BMP180;9519;51.890;8.970;2022-09-02T07:20:26;99640.00;;;14.00
18782;BMP180;9519;51.890;8.970;2022-09-02T07:25:28;99627.00;;;14.30
18782;BMP180;9519;51.890;8.970;2022-09-02T07:30:33;99627.00;;;14.50
18782;BMP180;9519;51.890;8.970;2022-09-02T07:35:35;99607.00;;;14.80
18782;BMP180;9519;51.890;8.970;2022-09-02T07:40:40;99626.00;;;14.90
18782;BMP180;9519;51.890;8.970;2022-09-02T07:45:44;99562.00;;;15.20
18782;BMP180;9519;51.890;8.970;2022-09-02T07:50:47;99621.00;;;15.50
18782;BMP180;9519;51.890;8.970;2022-09-02T07:55:50;99625.00;;;15.70
18782;BMP180;9519;51.890;8.970;2022-09-02T08:00:55;99621.00;;;15.90
18782;BMP180;9519;51.890;8.970;2022-09-02T08:05:57;99616.00;;;16.20
18782;BMP180;9519;51.890;8.970;2022-09-02T08:11:00;99610.00;;;16.40
18782;BMP180;9519;51.890;8.970;2022-09-02T08:16:05;99606.00;;;16.60
18782;BMP180;9519;51.890;8.970;2022-09-02T08:21:07;99584.00;;;16.90
18782;BMP180;9519;51.890;8.970;2022-09-02T08:26:09;99594.00;;;17.10
18782;BMP180;9519;51.890;8.970;2022-09-02T08:31:13;99598.00;;;17.30
18782;BMP180;9519;51.890;8.970;2022-09-02T08:36:15;99593.00;;;17.50
18782;BMP180;9519;51.890;8.970;2022-09-02T08:41:22;99578.00;;;17.70
18782;BMP180;9519;51.890;8.970;2022-09-02T08:46:30;99579.00;;;17.90
18782;BMP180;9519;51.890;8.970;2022-09-02T08:51:37;99572.00;;;18.10
18782;BMP180;9519;51.890;8.970;2022-09-02T08:56:43;99565.00;;;18.40
18782;BMP180;9519;51.890;8.970;2022-09-02T09:01:53;99555.00;;;18.60
18782;BMP180;9519;51.890;8.970;2022-09-02T09:07:17;99551.00;;;18.80
18782;BMP180;9519;51.890;8.970;2022-09-02T09:12:39;99552.00;;;19.00
18782;BMP180;9519;51.890;8.970;2022-09-02T09:17:50;99552.00;;;19.20
18782;BMP180;9519;51.890;8.970;2022-09-02T09:22:57;99543.00;;;19.40
18782;BMP180;9519;51.890;8.970;2022-09-02T09:28:01;99537.00;;;19.60
18782;BMP180;9519;51.890;8.970;2022-09-02T09:33:05;99515.00;;;19.80
18782;BMP180;9519;51.890;8.970;2022-09-02T09:38:12;99516.00;;;20.00
18782;BMP180;9519;51.890;8.970;2022-09-02T09:43:15;99504.00;;;20.20
18782;BMP180;9519;51.890;8.970;2022-09-02T09:48:22;99505.00;;;20.30
18782;BMP180;9519;51.890;8.970;2022-09-02T09:53:30;99487.00;;;20.50
18782;BMP180;9519;51.890;8.970;2022-09-02T09:58:41;99497.00;;;20.70
18782;BMP180;9519;51.890;8.970;2022-09-02T10:03:53;99492.00;;;20.90
18782;BMP180;9519;51.890;8.970;2022-09-02T10:08:58;99472.00;;;21.00
18782;BMP180;9519;51.890;8.970;2022-09-02T10:14:04;99477.00;;;21.10
18782;BMP180;9519;51.890;8.970;2022-09-02T10:19:21;99468.00;;;21.20
18782;BMP180;9519;51.890;8.970;2022-09-02T10:24:46;99454.00;;;21.30
18782;BMP180;9519;51.890;8.970;2022-09-02T10:29:58;99452.00;;;21.50
18782;BMP180;9519;51.890;8.970;2022-09-02T10:35:15;99454.00;;;21.60
18782;BMP180;9519;51.890;8.970;2022-09-02T10:40:26;99437.00;;;21.70
18782;BMP180;9519;51.890;8.970;2022-09-02T10:45:35;99428.00;;;21.90
18782;BMP180;9519;51.890;8.970;2022-09-02T10:50:47;99436.00;;;21.90
18782;BMP180;9519;51.890;8.970;2022-09-02T10:55:56;99442.00;;;22.00
18782;BMP180;9519;51.890;8.970;2022-09-02T11:01:02;99427.00;;;22.10
18782;BMP180;9519;51.890;8.970;2022-09-02T11:06:12;99438.00;;;22.20
18782;BMP180;9519;51.890;8.970;2022-09-02T11:11:21;99411.00;;;22.20
18782;BMP180;9519;51.890;8.970;2022-09-02T11:16:33;99413.00;;;22.40
18782;BMP180;9519;51.890;8.970;2022-09-02T11:21:55;99414.00;;;22.50
18782;BMP180;9519;51.890;8.970;2022-09-02T11:27:08;99415.00;;;22.60
18782;BMP180;9519;51.890;8.970;2022-09-02T11:32:18;99413.00;;;22.80
18782;BMP180;9519;51.890;8.970;2022-09-02T11:37:32;99407.00;;;22.90
18782;BMP180;9519;51.890;8.970;2022-09-02T11:43:02;99416.00;;;23.00
18782;BMP180;9519;51.890;8.970;2022-09-02T11:54:01;99399.00;;;23.00
18782;BMP180;9519;51.890;8.970;2022-09-02T11:59:06;99392.00;;;23.20
18782;BMP180;9519;51.890;8.970;2022-09-02T12:04:20;99392.00;;;23.40
18782;BMP180;9519;51.890;8.970;2022-09-02T12:15:08;99387.00;;;23.80
18782;BMP180;9519;51.890;8.970;2022-09-02T12:26:05;99376.00;;;23.70
18782;BMP180;9519;51.890;8.970;2022-09-02T12:31:14;99372.00;;;23.70
18782;BMP180;9519;51.890;8.970;2022-09-02T12:36:44;99372.00;;;23.70
18782;BMP180;9519;51.890;8.970;2022-09-02T12:41:53;99371.00;;;23.60
18782;BMP180;9519;51.890;8.970;2022-09-02T12:47:07;99365.00;;;23.60
18782;BMP180;9519;51.890;8.970;2022-09-02T12:52:11;99348.00;;;23.60
18782;BMP180;9519;51.890;8.970;2022-09-02T12:57:41;99341.00;;;23.80
18782;BMP180;9519;51.890;8.970;2022-09-02T13:02:56;99332.00;;;23.80
18782;BMP180;9519;51.890;8.970;2022-09-02T13:14:47;99331.00;;;24.20
18782;BMP180;9519;51.890;8.970;2022-09-02T13:26:05;99330.00;;;24.30
18782;BMP180;9519;51.890;8.970;2022-09-02T13:31:18;99323.00;;;24.30
18782;BMP180;9519;51.890;8.970;2022-09-02T13:36:29;99326.00;;;24.10
18782;BMP180;9519;51.890;8.970;2022-09-02T13:41:33;99328.00;;;24.00
18782;BMP180;9519;51.890;8.970;2022-09-02T13:46:48;99321.00;;;24.00
18782;BMP180;9519;51.890;8.970;2022-09-02T13:51:54;99379.00;;;24.10
18782;BMP180;9519;51.890;8.970;2022-09-02T13:56:59;99397.00;;;24.20
18782;BMP180;9519;51.890;8.970;2022-09-02T14:02:26;99401.00;;;24.30
18782;BMP180;9519;51.890;8.970;2022-09-02T14:07:37;99385.00;;;24.40
18782;BMP180;9519;51.890;8.970;2022-09-02T14:12:42;99388.00;;;24.30
18782;BMP180;9519;51.890;8.970;2022-09-02T14:18:07;99379.00;;;24.20
18782;BMP180;9519;51.890;8.970;2022-09-02T14:23:15;99370.00;;;24.10
18782;BMP180;9519;51.890;8.970;2022-09-02T14:28:21;99372.00;;;24.30
18782;BMP180;9519;51.890;8.970;2022-09-02T14:33:37;99360.00;;;24.70
18782;BMP180;9519;51.890;8.970;2022-09-02T14:38:51;99368.00;;;25.30
18782;BMP180;9519;51.890;8.970;2022-09-02T14:43:58;99347.00;;;26.10
18782;BMP180;9519;51.890;8.970;2022-09-02T14:49:05;99344.00;;;26.50
18782;BMP180;9519;51.890;8.970;2022-09-02T14:54:08;99339.00;;;26.60
18782;BMP180;9519;51.890;8.970;2022-09-02T14:59:11;99333.00;;;26.60
18782;BMP180;9519;51.890;8.970;2022-09-02T15:04:15;99333.00;;;26.30
18782;BMP180;9519;51.890;8.970;2022-09-02T15:09:19;99339.00;;;25.90
18782;BMP180;9519;51.890;8.970;2022-09-02T15:14:21;99334.00;;;25.50
18782;BMP180;9519;51.890;8.970;2022-09-02T15:19:27;99336.00;;;25.30
18782;BMP180;9519;51.890;8.970;2022-09-02T15:24:29;99317.00;;;25.60
18782;BMP180;9519;51.890;8.970;2022-09-02T15:29:31;99311.00;;;26.00
18782;BMP180;9519;51.890;8.970;2022-09-02T15:34:34;99299.00;;;26.50
18782;BMP180;9519;51.890;8.970;2022-09-02T15:39:36;99289.00;;;26.70
18782;BMP180;9519;51.890;8.970;2022-09-02T15:44:38;99291.00;;;26.30
18782;BMP180;9519;51.890;8.970;2022-09-02T15:49:42;99298.00;;;26.00
18782;BMP180;9519;51.890;8.970;2022-09-02T15:54:44;99298.00;;;25.50
18782;BMP180;9519;51.890;8.970;2022-09-02T15:59:46;99300.00;;;25.20
18782;BMP180;9519;51.890;8.970;2022-09-02T16:04:50;99291.00;;;24.80
18782;BMP180;9519;51.890;8.970;2022-09-02T16:09:52;99300.00;;;24.60
18782;BMP180;9519;51.890;8.970;2022-09-02T16:14:54;99287.00;;;24.40
18782;BMP180;9519;51.890;8.970;2022-09-02T16:19:57;99290.00;;;24.20
18782;BMP180;9519;51.890;8.970;2022-09-02T16:24:59;99286.00;;;24.20
18782;BMP180;9519;51.890;8.970;2022-09-02T16:30:01;99287.00;;;24.10
18782;BMP180;9519;51.890;8.970;2022-09-02T16:35:07;99275.00;;;24.10
18782;BMP180;9519;51.890;8.970;2022-09-02T16:40:10;99275.00;;;24.00
18782;BMP180;9519;51.890;8.970;2022-09-02T16:45:13;99272.00;;;23.80
18782;BMP180;9519;51.890;8.970;2022-09-02T16:50:16;99279.00;;;23.70
18782;BMP180;9519;51.890;8.970;2022-09-02T16:55:19;99269.00;;;23.60
18782;BMP180;9519;51.890;8.970;2022-09-02T17:00:22;99262.00;;;23.40
18782;BMP180;9519;51.890;8.970;2022-09-02T17:05:25;99262.00;;;23.30
18782;BMP180;9519;51.890;8.970;2022-09-02T17:10:28;99268.00;;;23.00
18782;BMP180;9519;51.890;8.970;2022-09-02T17:15:30;99274.00;;;22.90
18782;BMP180;9519;51.890;8.970;2022-09-02T17:20:34;99267.00;;;22.60
18782;BMP180;9519;51.890;8.970;2022-09-02T17:25:36;99279.00;;;22.40
18782;BMP180;9519;51.890;8.970;2022-09-02T17:30:38;99283.00;;;22.20
18782;BMP180;9519;51.890;8.970;2022-09-02T17:35:42;99283.00;;;22.00
18782;BMP180;9519;51.890;8.970;2022-09-02T17:40:44;99280.00;;;21.80
18782;BMP180;9519;51.890;8.970;2022-09-02T17:46:05;99285.00;;;21.70
18782;BMP180;9519;51.890;8.970;2022-09-02T17:51:08;99288.00;;;21.50
18782;BMP180;9519;51.890;8.970;2022-09-02T17:57:01;99293.00;;;21.30
18782;BMP180;9519;51.890;8.970;2022-09-02T18:07:58;99299.00;;;20.90
18782;BMP180;9519;51.890;8.970;2022-09-02T18:13:04;99312.00;;;20.70
18782;BMP180;9519;51.890;8.970;2022-09-02T18:18:11;99311.00;;;20.50
18782;BMP180;9519;51.890;8.970;2022-09-02T18:23:34;99317.00;;;20.30
18782;BMP180;9519;51.890;8.970;2022-09-02T18:28:53;99325.00;;;20.00
18782;BMP180;9519;51.890;8.970;2022-09-02T18:34:14;99328.00;;;19.80
18782;BMP180;9519;51.890;8.970;2022-09-02T18:39:43;99326.00;;;19.60
18782;BMP180;9519;51.890;8.970;2022-09-02T18:44:58;99326.00;;;19.50
18782;BMP180;9519;51.890;8.970;2022-09-02T18:50:06;99333.00;;;19.30
18782;BMP180;9519;51.890;8.970;2022-09-02T18:55:15;99347.00;;;19.20
18782;BMP180;9519;51.890;8.970;2022-09-02T19:00:17;99352.00;;;19.10
18782;BMP180;9519;51.890;8.970;2022-09-02T19:05:28;99351.00;;;18.90
18782;BMP180;9519;51.890;8.970;2022-09-02T19:10:32;99361.00;;;18.80
18782;BMP180;9519;51.890;8.970;2022-09-02T19:15:34;99366.00;;;18.70
18782;BMP180;9519;51.890;8.970;2022-09-02T19:20:37;99365.00;;;18.60
18782;BMP180;9519;51.890;8.970;2022-09-02T19:25:42;99372.00;;;18.50
18782;BMP180;9519;51.890;8.970;2022-09-02T19:30:46;99367.00;;;18.40
18782;BMP180;9519;51.890;8.970;2022-09-02T19:35:50;99372.00;;;18.30
18782;BMP180;9519;51.890;8.970;2022-09-02T19:40:53;99375.00;;;18.20
18782;BMP180;9519;51.890;8.970;2022-09-02T19:45:56;99378.00;;;18.10
18782;BMP180;9519;51.890;8.970;2022-09-02T19:50:59;99389.00;;;18.10
18782;BMP180;9519;51.890;8.970;2022-09-02T19:56:03;99383.00;;;18.00
18782;BMP180;9519;51.890;8.970;2022-09-02T20:01:07;99385.00;;;17.90
18782;BMP180;9519;51.890;8.970;2022-09-02T20:06:10;99390.00;;;17.70
18782;BMP180;9519;51.890;8.970;2022-09-02T20:11:14;99393.00;;;17.70
18782;BMP180;9519;51.890;8.970;2022-09-02T20:16:20;99403.00;;;17.60
18782;BMP180;9519;51.890;8.970;2022-09-02T20:21:26;99411.00;;;17.50
18782;BMP180;9519;51.890;8.970;2022-09-02T20:26:42;99406.00;;;17.40
18782;BMP180;9519;51.890;8.970;2022-09-02T20:32:04;99407.00;;;17.20
18782;BMP180;9519;51.890;8.970;2022-09-02T20:37:24;99405.00;;;17.30
18782;BMP180;9519;51.890;8.970;2022-09-02T20:42:53;99403.00;;;17.20
18782;BMP180;9519;51.890;8.970;2022-09-02T20:48:12;99411.00;;;17.10
18782;BMP180;9519;51.890;8.970;2022-09-02T20:53:48;99414.00;;;17.10
18782;BMP180;9519;51.890;8.970;2022-09-02T20:59:05;99403.00;;;17.00
18782;BMP180;9519;51.890;8.970;2022-09-02T21:04:28;99417.00;;;17.00
18782;BMP180;9519;51.890;8.970;2022-09-02T21:09:45;99406.00;;;16.90
18782;BMP180;9519;51.890;8.970;2022-09-02T21:15:00;99408.00;;;16.90
18782;BMP180;9519;51.890;8.970;2022-09-02T21:20:13;99407.00;;;16.70
18782;BMP180;9519;51.890;8.970;2022-09-02T21:25:24;99410.00;;;16.70
18782;BMP180;9519;51.890;8.970;2022-09-02T21:30:38;99406.00;;;16.60
18782;BMP180;9519;51.890;8.970;2022-09-02T21:35:43;99403.00;;;16.60
18782;BMP180;9519;51.890;8.970;2022-09-02T21:41:07;99404.00;;;16.50
18782;BMP180;9519;51.890;8.970;2022-09-02T21:46:25;99410.00;;;16.40
18782;BMP180;9519;51.890;8.970;2022-09-02T21:51:40;99402.00;;;16.30
18782;BMP180;9519;51.890;8.970;2022-09-02T21:57:02;99410.00;;;16.30
18782;BMP180;9519;51.890;8.970;2022-09-02T22:02:15;99408.00;;;16.20
18782;BMP180;9519;51.890;8.970;2022-09-02T22:07:28;99410.00;;;16.20
18782;BMP180;9519;51.890;8.970;2022-09-02T22:12:36;99405.00;;;16.10
18782;BMP180;9519;51.890;8.970;2022-09-02T22:17:47;99399.00;;;16.00
18782;BMP180;9519;51.890;8.970;2022-09-02T22:22:57;99402.00;;;15.90
18782;BMP180;9519;51.890;8.970;2022-09-02T22:28:06;99401.00;;;15.90
18782;BMP180;9519;51.890;8.970;2022-09-02T22:33:16;99395.00;;;15.80
18782;BMP180;9519;51.890;8.970;2022-09-02T22:38:23;99392.00;;;15.70
18782;BMP180;9519;51.890;8.970;2022-09-02T22:43:38;99389.00;;;15.70
18782;BMP180;9519;51.890;8.970;2022-09-02T22:48:50;99387.00;;;15.60
18782;BMP180;9519;51.890;8.970;2022-09-02T22:54:11;99375.00;;;15.50
18782;BMP180;9519;51.890;8.970;2022-09-02T22:59:40;99385.00;;;15.50
18782;BMP180;9519;51.890;8.970;2022-09-02T23:05:09;99384.00;;;15.40
18782;BMP180;9519;51.890;8.970;2022-09-02T23:10:46;99368.00;;;15.30
18782;BMP180;9519;51.890;8.970;2022-09-02T23:16:04;99367.00;;;15.30
18782;BMP180;9519;51.890;8.970;2022-09-02T23:21:22;99375.00;;;15.30
18782;BMP180;9519;51.890;8.970;2022-09-02T23:26:38;99358.00;;;15.20
18782;BMP180;9519;51.890;8.970;2022-09-02T23:32:06;99364.00;;;15.10
18782;BMP180;9519;51.890;8.970;2022-09-02T23:37:38;99361.00;;;15.10
18782;BMP180;9519;51.890;8.970;2022-09-02T23:42:44;99360.00;;;15.00
18782;BMP180;9519;51.890;8.970;2022-09-02T23:48:31;99339.00;;;15.00
18782;BMP180;9519;51.890;8.970;2022-09-02T23:53:58;99342.00;;;14.90
18782;BMP180;9519;51.890;8.970;2022-09-02T23:59:20;99342.00;;;14.90
